Flight Track Log - Related Links

Times and Time Zones

All times are in EDT time to prevent confusion due to time zone crossing. See the SWA559 flight status page for this flight to view local times or setup timezone preferences in your user account.

Time Position Orientation Groundspeed Altitude Reporting Facility
EDT Latitude Longitude Course Direction KTS MPH feet Rate Location/Type
Sat 02:04:49 PM 33.9450 -118.4772 58° Northeast 191 220 2,200  Level Los Angeles Center
Sat 02:05:51 PM 33.9336 -118.5611 261° West 260 299 4,800 2,903 Climbing Los Angeles Center
Sat 02:06:53 PM 33.8744 -118.5947 205° Southwest 281 323 8,200 2,855 Climbing Los Angeles Center
Sat 02:07:55 PM 33.8783 -118.5081 87° East 299 344 10,700 2,371 Climbing Los Angeles Center
Sat 02:08:57 PM 33.9383 -118.4261 49° Northeast 311 358 13,100 2,516 Climbing Los Angeles Center
Sat 02:09:59 PM 33.9928 -118.3286 56° Northeast 342 394 15,900 2,468 Climbing Los Angeles Center
Sat 02:10:00 PM 34.3144 -117.6929 58° Northeast  Level Estimated
Sat 02:11:01 PM 34.0500 -118.2281 55° Northeast 355 409 18,200  Level Los Angeles Center
Sat 02:12:03 PM 34.1092 -118.1231 56° Northeast 371 427 20,500 1,935 Climbing Los Angeles Center
Sat 02:13:05 PM 34.1708 -118.0131 56° Northeast 390 449 22,200 1,935 Climbing Los Angeles Center
Sat 02:14:07 PM 34.2361 -117.8978 56° Northeast 410 472 24,500 1,872 Climbing Los Angeles Center
Sat 02:15:10 PM 34.3228 -117.7697 51° Northeast 411 473 26,100 1,488 Climbing Los Angeles Center
Sat 02:16:12 PM 34.3892 -117.6739 50° Northeast 426 490 27,600 1,548 Climbing Los Angeles Center
Sat 02:17:14 PM 34.4828 -117.5406 50° Northeast 434 499 29,300 1,548 Climbing Los Angeles Center
Sat 02:18:16 PM 34.5611 -117.4264 50° Northeast 441 507 30,800 1,597 Climbing Los Angeles Center
Sat 02:19:18 PM 34.6383 -117.3133 50° Northeast 440 506 32,600 1,403 Climbing Los Angeles Center
Sat 02:20:20 PM 34.7144 -117.2022 50° Northeast 435 501 33,700 1,016 Climbing Los Angeles Center
Sat 02:21:22 PM 34.7917 -117.0897 50° Northeast 435 501 34,700 629 Climbing Los Angeles Center
Sat 02:22:24 PM 34.8856 -116.9525 50° Northeast 441 507 35,000 145 Climbing Los Angeles Center
Sat 02:23:26 PM 34.9631 -116.8389 50° Northeast 441 507 35,000  Level Los Angeles Center
Sat 02:24:28 PM 35.0408 -116.7214 51° Northeast 444 511 35,000  Level Los Angeles Center
Sat 02:25:30 PM 35.1214 -116.6050 50° Northeast 447 514 35,000  Level Los Angeles Center
Sat 02:26:32 PM 35.2008 -116.4881 50° Northeast 449 517 35,000  Level Los Angeles Center
Sat 02:27:35 PM 35.2956 -116.3494 50° Northeast 445 512 35,000  Level Los Angeles Center
Sat 02:28:37 PM 35.3739 -116.2308 51° Northeast 447 514 35,000  Level Los Angeles Center
Sat 02:29:39 PM 35.4503 -116.1131 51° Northeast 445 512 35,000  Level Los Angeles Center
Sat 02:30:41 PM 35.5308 -115.9947 50° Northeast 451 519 35,000  Level Los Angeles Center
Sat 02:31:43 PM 35.6131 -115.8722 50° Northeast 450 518 35,000  Level Los Angeles Center
Sat 02:32:45 PM 35.6911 -115.7528 51° Northeast 451 519 35,000  Level Los Angeles Center
Sat 02:33:47 PM 35.7858 -115.6103 51° Northeast 450 518 35,000  Level Los Angeles Center
Sat 02:34:49 PM 35.8644 -115.4911 51° Northeast 452 520 35,000 387 Level Los Angeles Center
Sat 02:35:51 PM 35.9394 -115.3753 51° Northeast 442 509 35,800 919 Climbing Los Angeles Center
Sat 02:36:53 PM 36.0147 -115.2603 51° Northeast 435 501 36,900 576 Climbing Los Angeles Center
Sat 02:37:56 PM 36.0867 -115.1358 54° Northeast 447 514 37,000 48 Climbing Los Angeles Center
Sat 02:38:58 PM 36.1425 -114.9536 69° East 471 542 37,000  Level Los Angeles Center
Sat 02:40:00 PM 36.1933 -114.8044 67° East 472 543 37,000  Level Los Angeles Center
Sat 02:41:03 PM 36.2456 -114.6572 66° East 470 541 37,000  Level Los Angeles Center
Sat 02:42:04 PM 36.2978 -114.5083 66° East 472 543 37,000  Level Los Angeles Center
Sat 02:43:06 PM 36.3497 -114.3600 66° East 471 542 37,000  Level Los Angeles Center
Sat 02:44:08 PM 36.4108 -114.1817 67° East 469 540 37,000  Level Los Angeles Center
Sat 02:45:10 PM 36.4622 -114.0336 67° East 468 539 37,000  Level Los Angeles Center
Sat 02:46:12 PM 36.5117 -113.8903 67° East 476 548 37,000  Level Los Angeles Center
Sat 02:47:14 PM 36.5628 -113.7408 67° East 474 545 37,000  Level Los Angeles Center
Sat 02:48:16 PM 36.6239 -113.5614 67° East 472 543 37,000  Level Los Angeles Center
Sat 02:49:18 PM 36.6744 -113.4114 67° East 472 543 37,000  Level Los Angeles Center
Sat 02:50:21 PM 36.7253 -113.2614 67° East 472 543 37,000  Level Los Angeles Center
Sat 02:51:23 PM 36.7750 -113.1133 67° East 469 540 37,000  Level Los Angeles Center
Sat 02:52:25 PM 36.8242 -112.9656 67° East 466 536 37,000  Level Los Angeles Center
Sat 02:53:27 PM 36.8736 -112.8186 67° East 464 534 37,000  Level Los Angeles Center
Sat 02:54:29 PM 36.9325 -112.6406 67° East 466 536 37,000  Level Los Angeles Center
Sat 02:55:30 PM 36.9808 -112.4919 68° East 465 535 37,000  Level Los Angeles Center
Sat 02:56:32 PM 37.0297 -112.3431 68° East 465 535 37,000  Level Los Angeles Center
Sat 02:57:34 PM 37.0783 -112.1939 68° East 467 537 37,000  Level Los Angeles Center
Sat 02:58:36 PM 37.1272 -112.0453 68° East 465 535 37,000  Level Los Angeles Center
Sat 02:59:38 PM 37.1858 -111.8650 68° East 467 537 37,000  Level Los Angeles Center
Sat 03:00:02 PM 37.2069 -111.8022 67° East 470 541 37,000  Level Denver Center
Sat 03:01:03 PM 37.2522 -111.6531 69° East 465 535 37,000  Level Denver Center
Sat 03:02:05 PM 37.3000 -111.5014 68° East 468 539 37,000  Level Denver Center
Sat 03:03:07 PM 37.3483 -111.3475 68° East 474 545 37,000  Level Denver Center
Sat 03:04:08 PM 37.3972 -111.1953 68° East 473 544 37,000  Level Denver Center
Sat 03:05:10 PM 37.4442 -111.0439 69° East 466 536 37,000  Level Denver Center
Sat 03:06:11 PM 37.4903 -110.8939 69° East 461 531 37,000  Level Denver Center
Sat 03:07:13 PM 37.5442 -110.7189 69° East 449 517 37,000  Level Denver Center
Sat 03:08:14 PM 37.5886 -110.5717 69° East 450 518 37,000  Level Denver Center
Sat 03:09:16 PM 37.6317 -110.4294 69° East 451 519 37,000  Level Denver Center
Sat 03:10:17 PM 37.6828 -110.2636 69° East 453 521 37,000  Level Denver Center
Sat 03:11:19 PM 37.7331 -110.1264 65° Northeast 450 518 37,000  Level Denver Center
Sat 03:12:21 PM 37.7867 -109.9878 64° Northeast 455 524 37,000  Level Denver Center
Sat 03:13:22 PM 37.8500 -109.8242 64° Northeast 462 532 37,000  Level Denver Center
Sat 03:14:24 PM 37.9036 -109.6831 64° Northeast 464 534 37,000  Level Denver Center
Sat 03:15:25 PM 37.9669 -109.5169 64° Northeast 467 537 37,000  Level Denver Center
Sat 03:16:27 PM 38.0203 -109.3747 65° Northeast 465 535 37,000  Level Denver Center
Sat 03:17:28 PM 38.0806 -109.2150 64° Northeast 466 536 37,000  Level Denver Center
Sat 03:18:30 PM 38.1342 -109.0683 65° Northeast 475 547 37,000  Level Denver Center
Sat 03:19:31 PM 38.1964 -108.9006 65° Northeast 473 544 37,000  Level Denver Center
Sat 03:20:33 PM 38.2503 -108.7564 65° Northeast 472 543 37,000  Level Denver Center
Sat 03:21:34 PM 38.3036 -108.6114 65° Northeast 474 545 37,000  Level Denver Center
Sat 03:22:36 PM 38.3661 -108.4419 65° Northeast 476 548 37,000  Level Denver Center
Sat 03:23:37 PM 38.4189 -108.2983 65° Northeast 471 542 37,000  Level Denver Center
Sat 03:24:39 PM 38.4806 -108.1289 65° Northeast 473 544 37,000  Level Denver Center
Sat 03:25:40 PM 38.5322 -107.9850 65° Northeast 471 542 37,000  Level Denver Center
Sat 03:27:00 PM 38.5956 -107.8035 66° East  Level FlightAware Approximate
Sat 03:27:43 PM 38.6450 -107.6708 66° East 470 541 37,000  Level Denver Center
Sat 03:28:45 PM 38.6975 -107.5242 65° Northeast 473 544 37,000  Level Denver Center
Sat 03:29:46 PM 38.7564 -107.3556 66° East 469 540 37,000  Level Denver Center
Sat 03:30:47 PM 38.8075 -107.2089 66° East 472 543 37,000 -98 Level Denver Center
Sat 03:31:49 PM 38.8578 -107.0661 66° East 474 545 36,800 -634 Descending Denver Center
Sat 03:32:50 PM 38.9181 -106.8919 66° East 471 542 35,700 -976 Descending Denver Center
Sat 03:33:52 PM 38.9683 -106.7483 66° East 463 533 34,800 -976 Descending Denver Center
Sat 03:34:53 PM 39.0239 -106.5836 66° East 452 520 33,700 -984 Descending Denver Center
Sat 03:35:54 PM 39.0731 -106.4436 66° East 450 518 32,800 -976 Descending Denver Center
Sat 03:36:56 PM 39.1289 -106.2792 66° East 450 518 31,700 -1,756 Descending Denver Center
Sat 03:37:57 PM 39.1747 -106.1389 67° East 450 518 29,200 -2,390 Descending Denver Center
Sat 03:38:59 PM 39.2231 -105.9961 66° East 434 499 26,800 -2,293 Descending Denver Center
Sat 03:40:00 PM 39.2678 -105.8606 67° East 411 473 24,500 -2,195 Descending Denver Center
Sat 03:41:02 PM 39.3119 -105.7311 66° East 394 453 22,300 -2,146 Descending Denver Center
Sat 03:42:03 PM 39.3522 -105.6064 67° East 377 434 20,100 -1,623 Descending Denver Center
Sat 03:43:04 PM 39.3953 -105.4733 67° East 371 427 19,000 -1,220 Descending Denver Center
Sat 03:44:06 PM 39.4025 -105.3319 86° East 372 428 17,600 -1,220 Descending Denver Center
Sat 03:45:07 PM 39.3886 -105.2119 98° East 340 391 16,500 -1,073 Descending Denver Center
Sat 03:46:09 PM 39.3617 -105.1083 109° East 306 352 15,400 -976 Descending Denver Center
Sat 03:47:10 PM 39.3375 -105.0033 107° East 284 327 14,500 -1,122 Descending Denver Center
Sat 03:48:12 PM 39.3572 -104.9139 74° East 263 303 13,100 -1,268 Descending Denver Center
Sat 03:49:13 PM 39.3911 -104.8325 62° Northeast 258 297 11,900 -1,131 Descending Denver Center
Sat 03:50:14 PM 39.4272 -104.7472 61° Northeast 251 289 10,800 -878 Descending Denver Center
Sat 03:51:16 PM 39.4817 -104.6928 38° Northeast 256 295 10,100 -390 Descending Denver Center
Sat 03:52:17 PM 39.5369 -104.6458 33° Northeast 243 280 10,000  Descending Denver Center
Sat 03:53:18 PM 39.6094 -104.6447 North 239 275 10,100 -537 Climbing Denver Center
Sat 03:54:20 PM 39.6778 -104.6436 North 245 282 8,900 -1,024 Descending Denver Center
Sat 03:55:21 PM 39.7333 -104.6436 360° North 190 219 8,000 -1,171 Descending Denver Center
Sat 03:56:23 PM 39.7825 -104.6431 360° North 168 193 6,500 -1,171 Descending Denver Center
Sat 03:57:24 PM 39.8244 -104.6417 North 154 177 5,600 -537 Descending Denver Center
Sat 03:58:26 PM 39.8519 -104.6425 359° North 117 135 5,400 -194 Descending Denver Center
Sat 04:00:00 PM 39.8500 -104.6667 North  Level FlightAware Approximate
Sat 04:07:00 PM 39.8617 -104.6732 North  Level Estimated
Sat 04:08:00 PM 39.8617 -104.6732 North  Level Estimated

Login

Don't have an account? Register now (free) for customized features, flight alerts, and more!